createdAt,value
2019-01-24T00:00:24.983Z,99.93
2019-01-24T00:03:28.782Z,109.13
2019-01-24T00:06:32.601Z,111.20
2019-01-24T00:09:36.441Z,101.23
2019-01-24T00:12:40.343Z,106.67
2019-01-24T00:15:44.179Z,108.47
2019-01-24T00:18:48.016Z,98.70
2019-01-24T00:21:51.893Z,111.63
2019-01-24T00:24:55.725Z,102.20
2019-01-24T00:27:59.619Z,104.80
2019-01-24T00:31:03.636Z,100.00
2019-01-24T00:34:07.545Z,99.80
2019-01-24T00:37:11.508Z,100.33
2019-01-24T00:40:17.714Z,95.40
2019-01-24T00:43:21.526Z,96.37
2019-01-24T00:46:25.336Z,101.47
2019-01-24T00:49:29.166Z,101.93
2019-01-24T00:52:32.995Z,107.23
2019-01-24T00:55:36.874Z,102.10
2019-01-24T00:58:40.666Z,110.73
2019-01-24T01:01:44.647Z,110.67
2019-01-24T01:04:48.554Z,109.47
2019-01-24T01:07:52.623Z,109.03
2019-01-24T01:10:56.523Z,109.83
2019-01-24T01:14:00.329Z,112.10
2019-01-24T01:17:04.411Z,104.00
2019-01-24T01:20:10.918Z,110.80
2019-01-24T01:23:14.871Z,98.43
2019-01-24T01:26:18.861Z,102.23
2019-01-24T01:29:22.679Z,107.70
2019-01-24T01:32:26.639Z,109.23
2019-01-24T01:35:30.560Z,100.37
2019-01-24T01:38:34.530Z,105.10
2019-01-24T01:41:38.426Z,102.23
2019-01-24T01:44:42.319Z,108.83
2019-01-24T01:47:46.396Z,114.20
2019-01-24T01:50:50.225Z,99.80
2019-01-24T01:53:54.055Z,103.57
2019-01-24T01:56:57.899Z,108.30
2019-01-24T02:00:01.868Z,105.63
2019-01-24T02:03:05.860Z,107.00
2019-01-24T02:06:09.683Z,106.77
2019-01-24T02:09:13.525Z,106.43
2019-01-24T02:12:17.421Z,106.97
2019-01-24T02:15:21.424Z,104.87
2019-01-24T02:18:25.468Z,103.40
2019-01-24T02:21:30.671Z,108.00
2019-01-24T02:24:34.465Z,111.63
2019-01-24T02:27:38.385Z,110.73
2019-01-24T02:30:42.357Z,111.27
2019-01-24T02:33:46.292Z,101.93
2019-01-24T02:36:50.126Z,112.33
2019-01-24T02:39:53.969Z,104.40
2019-01-24T02:42:57.865Z,103.80
2019-01-24T02:46:01.782Z,111.07
2019-01-24T02:49:05.670Z,116.37
2019-01-24T02:52:09.685Z,111.47
2019-01-24T02:55:14.600Z,113.13
2019-01-24T02:58:18.424Z,114.90
2019-01-24T03:01:22.386Z,112.03
2019-01-24T03:04:26.201Z,121.70
2019-01-24T03:07:30.015Z,111.87
2019-01-24T03:10:33.825Z,124.53
2019-01-24T03:13:37.647Z,118.03
2019-01-24T03:16:41.575Z,121.17
2019-01-24T03:19:45.451Z,121.80
2019-01-24T03:22:49.525Z,121.47
2019-01-24T03:25:53.330Z,125.10
2019-01-24T03:28:57.261Z,110.83
2019-01-24T03:32:01.075Z,124.77
2019-01-24T03:35:07.399Z,110.73
2019-01-24T03:38:11.214Z,106.97
2019-01-24T03:41:15.094Z,104.63
2019-01-24T03:44:18.992Z,105.80
2019-01-24T03:47:22.853Z,111.80
2019-01-24T03:50:26.666Z,114.80
2019-01-24T03:53:30.477Z,111.93
2019-01-24T03:56:34.426Z,96.67
2019-01-24T03:59:38.400Z,99.00
2019-01-24T04:02:42.319Z,115.07
2019-01-24T04:05:46.344Z,106.97
2019-01-24T04:08:50.165Z,96.33
2019-01-24T04:11:54.159Z,99.70
2019-01-24T04:14:57.970Z,102.60
2019-01-24T04:18:01.984Z,90.03
2019-01-24T04:21:05.798Z,104.03
2019-01-24T04:24:09.616Z,95.13
2019-01-24T04:27:13.432Z,104.50
2019-01-24T04:30:19.556Z,106.07
2019-01-24T04:33:23.352Z,114.07
2019-01-24T04:36:27.185Z,106.40
2019-01-24T04:39:30.997Z,100.80
2019-01-24T04:42:34.850Z,106.20
2019-01-24T04:45:38.638Z,78.00
2019-01-24T04:48:42.455Z,100.97
2019-01-24T04:51:46.273Z,98.03
2019-01-24T04:54:50.122Z,105.33
2019-01-24T04:57:55.014Z,100.17
2019-01-24T05:00:58.954Z,101.43
2019-01-24T05:04:02.794Z,93.57
2019-01-24T05:07:06.667Z,89.23
2019-01-24T05:10:10.590Z,87.23
2019-01-24T05:13:14.463Z,88.33
2019-01-24T05:16:18.277Z,91.23
2019-01-24T05:19:22.107Z,93.67
2019-01-24T05:22:25.919Z,89.93
2019-01-24T05:25:29.846Z,88.40
2019-01-24T05:28:33.641Z,85.83
2019-01-24T05:31:37.467Z,83.80
2019-01-24T05:34:41.294Z,86.47
2019-01-24T05:37:45.118Z,90.23
2019-01-24T05:40:48.926Z,95.07
2019-01-24T05:43:53.627Z,87.20
2019-01-24T05:46:57.423Z,97.40
2019-01-24T05:50:01.225Z,92.30
2019-01-24T05:53:05.107Z,96.27
2019-01-24T05:56:08.907Z,101.00
2019-01-24T05:59:12.707Z,104.50
2019-01-24T06:02:16.529Z,107.60
2019-01-24T06:05:20.389Z,97.43
2019-01-24T06:08:24.305Z,98.17
2019-01-24T06:11:28.116Z,106.53
2019-01-24T06:14:31.928Z,99.30
2019-01-24T06:17:35.776Z,102.83
2019-01-24T06:20:39.620Z,102.47
2019-01-24T06:23:43.440Z,102.83
2019-01-24T06:26:47.362Z,108.53
2019-01-24T06:29:51.166Z,89.07
2019-01-24T06:32:55.014Z,106.13
2019-01-24T06:35:58.811Z,99.67
2019-01-24T06:39:02.630Z,87.67
2019-01-24T06:42:06.510Z,79.43
2019-01-24T06:45:13.420Z,89.03
2019-01-24T06:48:17.222Z,97.93
2019-01-24T06:51:21.037Z,92.40
2019-01-24T06:54:24.992Z,83.03
2019-01-24T06:57:28.876Z,94.33
2019-01-24T07:00:32.678Z,83.47
2019-01-24T07:03:36.493Z,91.90
2019-01-24T07:06:40.310Z,75.53
2019-01-24T07:09:44.123Z,84.63
2019-01-24T07:12:48.008Z,77.80
2019-01-24T07:15:51.860Z,86.93
2019-01-24T07:18:55.677Z,77.10
2019-01-24T07:21:59.586Z,75.10
2019-01-24T07:25:03.513Z,79.53
2019-01-24T07:28:07.401Z,67.10
2019-01-24T07:31:11.289Z,74.57
2019-01-24T07:34:15.153Z,76.67
2019-01-24T07:37:18.952Z,79.00
2019-01-24T07:40:22.872Z,65.73
2019-01-24T07:43:26.795Z,69.27
2019-01-24T07:46:30.696Z,77.60
2019-01-24T07:49:34.534Z,75.30
2019-01-24T07:52:38.443Z,80.00
2019-01-24T07:55:42.426Z,78.43
2019-01-24T07:58:46.268Z,75.17
2019-01-24T08:01:50.088Z,64.13
2019-01-24T08:04:53.905Z,70.00
2019-01-24T08:07:57.899Z,65.10
2019-01-24T08:11:01.708Z,67.77
2019-01-24T08:14:05.702Z,57.57
2019-01-24T08:17:09.515Z,63.43
2019-01-24T08:20:24.223Z,64.87
2019-01-24T08:23:28.008Z,50.43
2019-01-24T08:26:31.820Z,57.97
2019-01-24T08:29:35.626Z,56.37
2019-01-24T08:32:39.427Z,58.43
2019-01-24T08:35:43.234Z,61.20
2019-01-24T08:38:47.032Z,51.70
2019-01-24T08:41:50.878Z,50.20
2019-01-24T08:44:54.682Z,54.10
2019-01-24T08:47:58.595Z,54.30
2019-01-24T08:51:02.466Z,51.80
2019-01-24T08:54:06.379Z,49.67
2019-01-24T08:57:10.189Z,52.90
2019-01-24T09:00:16.459Z,52.83
2019-01-24T09:03:20.432Z,67.47
2019-01-24T09:06:24.250Z,53.87
2019-01-24T09:09:28.064Z,58.57
2019-01-24T09:12:31.918Z,58.97
2019-01-24T09:15:36.336Z,56.57
2019-01-24T09:18:40.155Z,57.33
2019-01-24T09:21:43.969Z,50.37
2019-01-24T09:24:47.864Z,51.77
2019-01-24T09:27:51.744Z,56.27
2019-01-24T09:30:55.615Z,52.33
2019-01-24T09:33:59.429Z,57.67
2019-01-24T09:37:03.219Z,56.63
2019-01-24T09:40:08.542Z,54.60
2019-01-24T09:43:12.411Z,54.00
2019-01-24T09:46:16.228Z,56.17
2019-01-24T09:49:20.117Z,53.20
2019-01-24T09:52:23.988Z,62.33
2019-01-24T09:55:27.997Z,54.07
2019-01-24T09:58:31.806Z,53.60
2019-01-24T10:01:35.625Z,56.93
2019-01-24T10:04:39.436Z,49.30
2019-01-24T10:07:43.328Z,58.13
2019-01-24T10:10:47.212Z,52.63
2019-01-24T10:13:51.042Z,46.00
2019-01-24T10:16:54.830Z,49.23
2019-01-24T10:19:58.659Z,52.47
2019-01-24T10:23:02.572Z,49.60
2019-01-24T10:26:06.520Z,52.33
2019-01-24T10:29:10.350Z,56.23
2019-01-24T10:32:14.250Z,52.83
2019-01-24T10:35:18.505Z,48.13
2019-01-24T10:38:22.310Z,55.07
2019-01-24T10:41:26.130Z,48.27
2019-01-24T10:44:29.935Z,53.90
2019-01-24T10:47:33.768Z,52.97
2019-01-24T10:50:37.641Z,52.20
2019-01-24T10:53:41.499Z,49.00
2019-01-24T10:56:45.344Z,48.13
2019-01-24T10:59:49.214Z,48.10
2019-01-24T11:02:53.143Z,52.40
2019-01-24T11:05:57.033Z,54.20
2019-01-24T11:09:00.920Z,50.10
2019-01-24T11:12:05.095Z,46.93
2019-01-24T11:15:11.818Z,48.97
2019-01-24T11:18:15.710Z,48.90
2019-01-24T11:21:19.707Z,48.30
2019-01-24T11:24:23.613Z,47.70
2019-01-24T11:27:27.588Z,47.70
2019-01-24T11:30:31.688Z,48.23
2019-01-24T11:33:35.521Z,49.70
2019-01-24T11:36:39.423Z,45.47
2019-01-24T11:39:43.230Z,46.73
2019-01-24T11:42:47.345Z,45.13
2019-01-24T11:45:51.158Z,45.47
2019-01-24T11:48:54.962Z,48.27
2019-01-24T11:51:58.775Z,48.50
2019-01-24T11:55:02.756Z,43.30
2019-01-24T11:58:07.131Z,46.93
2019-01-24T12:01:10.945Z,45.30
2019-01-24T12:04:14.799Z,40.77
2019-01-24T12:07:18.632Z,43.53
2019-01-24T12:10:23.945Z,46.23
2019-01-24T12:13:27.758Z,46.87
2019-01-24T12:16:31.608Z,45.13
2019-01-24T12:19:35.449Z,42.87
2019-01-24T12:22:39.278Z,43.23
2019-01-24T12:25:43.154Z,44.17
2019-01-24T12:28:46.980Z,43.27
2019-01-24T12:31:50.796Z,40.40
2019-01-24T12:34:54.633Z,45.57
2019-01-24T12:37:58.537Z,43.30
2019-01-24T12:41:02.347Z,45.97
2019-01-24T12:44:06.251Z,47.53
2019-01-24T12:47:10.059Z,47.37
2019-01-24T12:50:15.501Z,45.47
2019-01-24T12:53:19.444Z,47.93
2019-01-24T12:56:23.376Z,46.57
2019-01-24T12:59:27.255Z,45.80
2019-01-24T13:02:31.075Z,45.00
2019-01-24T13:05:34.991Z,49.30
2019-01-24T13:08:38.871Z,47.20
2019-01-24T13:11:42.683Z,51.43
2019-01-24T13:14:46.559Z,50.33
2019-01-24T13:17:50.540Z,50.90
2019-01-24T13:20:54.360Z,46.13
2019-01-24T13:23:58.180Z,48.27
2019-01-24T13:27:01.991Z,45.30
2019-01-24T13:30:08.782Z,45.07
2019-01-24T13:33:12.706Z,42.83
2019-01-24T13:36:16.596Z,47.67
2019-01-24T13:39:20.483Z,48.73
2019-01-24T13:42:24.355Z,47.33
2019-01-24T13:45:33.042Z,41.47
2019-01-24T13:48:36.881Z,46.13
2019-01-24T13:51:40.696Z,45.43
2019-01-24T13:54:44.499Z,55.13
2019-01-24T13:57:48.517Z,42.10
2019-01-24T14:00:52.311Z,42.57
2019-01-24T14:04:06.458Z,46.93
2019-01-24T14:07:10.431Z,46.20
2019-01-24T14:10:14.710Z,43.33
2019-01-24T14:13:18.508Z,44.70
2019-01-24T14:16:22.322Z,43.27
2019-01-24T14:19:26.133Z,40.93
2019-01-24T14:22:30.092Z,45.33
2019-01-24T14:25:33.900Z,43.27
2019-01-24T14:28:37.810Z,44.87
2019-01-24T14:31:41.686Z,45.70
2019-01-24T14:34:45.499Z,50.37
2019-01-24T14:37:49.458Z,44.27
2019-01-24T14:40:53.277Z,46.27
2019-01-24T14:43:57.100Z,47.70
2019-01-24T14:47:00.917Z,41.53
2019-01-24T14:50:06.619Z,43.87
2019-01-24T14:53:10.516Z,48.97
2019-01-24T14:56:14.332Z,47.37
2019-01-24T14:59:18.158Z,40.90
2019-01-24T15:02:21.982Z,40.73
2019-01-24T15:05:25.944Z,48.97
2019-01-24T15:08:29.781Z,46.63
2019-01-24T15:11:33.593Z,54.40
2019-01-24T15:14:37.567Z,48.50
2019-01-24T15:17:41.480Z,52.40
2019-01-24T15:20:45.363Z,50.33
2019-01-24T15:23:49.215Z,46.43
2019-01-24T15:26:53.022Z,51.57
2019-01-24T15:29:56.943Z,50.30
2019-01-24T15:33:00.841Z,47.23
2019-01-24T15:36:05.318Z,50.23
2019-01-24T15:39:09.597Z,52.00
2019-01-24T15:42:13.519Z,45.20
2019-01-24T15:45:17.606Z,43.93
2019-01-24T15:48:21.437Z,54.23
2019-01-24T15:51:25.255Z,49.87
2019-01-24T15:54:29.082Z,52.40
2019-01-24T15:57:33.022Z,51.67
2019-01-24T16:00:36.920Z,50.10
2019-01-24T16:03:40.821Z,51.07
2019-01-24T16:06:44.638Z,52.17
2019-01-24T16:09:48.501Z,52.63
2019-01-24T16:12:52.471Z,48.70
2019-01-24T16:15:56.373Z,51.20
2019-01-24T16:19:00.260Z,48.93
2019-01-24T16:22:04.276Z,46.40
2019-01-24T16:25:09.009Z,52.53
2019-01-24T16:28:12.921Z,52.17
2019-01-24T16:31:16.871Z,50.33
2019-01-24T16:34:20.777Z,52.57
2019-01-24T16:37:25.515Z,53.87
2019-01-24T16:40:29.774Z,52.37
2019-01-24T16:43:33.589Z,52.83
2019-01-24T16:46:37.494Z,56.70
2019-01-24T16:49:41.288Z,56.93
2019-01-24T16:52:45.203Z,57.20
2019-01-24T16:55:49.223Z,55.70
2019-01-24T16:58:53.582Z,57.97
2019-01-24T17:01:57.446Z,55.43
2019-01-24T17:05:01.368Z,52.47
2019-01-24T17:08:06.226Z,59.17
2019-01-24T17:11:10.204Z,53.13
2019-01-24T17:14:14.120Z,51.23
2019-01-24T17:17:17.928Z,49.50
2019-01-24T17:20:23.908Z,50.67
2019-01-24T17:23:27.746Z,51.47
2019-01-24T17:26:31.558Z,48.40
2019-01-24T17:29:35.389Z,63.37
2019-01-24T17:32:40.214Z,59.23
2019-01-24T17:35:44.153Z,50.37
2019-01-24T17:38:48.048Z,57.23
2019-01-24T17:41:51.819Z,54.30
2019-01-24T17:44:55.643Z,52.03
2019-01-24T17:47:59.444Z,54.13
2019-01-24T17:51:03.356Z,61.60
2019-01-24T17:54:07.241Z,64.43
2019-01-24T17:57:11.089Z,57.47
2019-01-24T18:00:18.464Z,50.53
2019-01-24T18:03:22.463Z,48.87
2019-01-24T18:06:26.424Z,55.83
2019-01-24T18:09:30.242Z,61.93
2019-01-24T18:12:34.073Z,52.53
2019-01-24T18:15:38.029Z,55.00
2019-01-24T18:18:41.847Z,60.70
2019-01-24T18:21:45.675Z,54.67
2019-01-24T18:24:49.554Z,54.27
2019-01-24T18:27:53.445Z,62.10
2019-01-24T18:30:57.303Z,65.80
2019-01-24T18:34:01.130Z,54.47
2019-01-24T18:37:05.027Z,53.53
2019-01-24T18:40:10.991Z,56.90
2019-01-24T18:43:21.688Z,55.67
2019-01-24T18:46:25.549Z,56.70
2019-01-24T18:49:29.413Z,57.93
2019-01-24T18:52:33.400Z,60.97
2019-01-24T18:55:37.389Z,59.17
2019-01-24T18:58:41.349Z,60.60
2019-01-24T19:01:45.257Z,62.80
2019-01-24T19:04:49.111Z,55.90
2019-01-24T19:07:53.015Z,62.83
2019-01-24T19:10:56.870Z,76.13
2019-01-24T19:14:00.740Z,70.13
2019-01-24T19:17:04.712Z,56.00
2019-01-24T19:20:10.671Z,71.93
2019-01-24T19:23:14.630Z,64.60
2019-01-24T19:26:18.446Z,66.10
2019-01-24T19:29:22.358Z,65.03
2019-01-24T19:32:26.256Z,69.20
2019-01-24T19:35:30.289Z,68.93
2019-01-24T19:38:34.318Z,68.40
2019-01-24T19:41:38.126Z,60.40
2019-01-24T19:44:42.146Z,57.83
2019-01-24T19:47:46.363Z,56.33
2019-01-24T19:50:50.198Z,57.23
2019-01-24T19:53:54.158Z,48.00
2019-01-24T19:56:58.138Z,49.90
2019-01-24T20:00:02.022Z,51.20
2019-01-24T20:03:06.542Z,54.97
2019-01-24T20:06:10.486Z,55.13
2019-01-24T20:09:14.524Z,51.47
2019-01-24T20:12:18.415Z,56.13
2019-01-24T20:15:24.732Z,64.87
2019-01-24T20:18:28.603Z,63.97
2019-01-24T20:21:32.498Z,61.30
2019-01-24T20:24:36.370Z,49.80
2019-01-24T20:27:40.297Z,55.83
2019-01-24T20:30:44.168Z,57.73
2019-01-24T20:33:48.023Z,50.80
2019-01-24T20:36:51.925Z,56.03
2019-01-24T20:39:55.741Z,57.67
2019-01-24T20:42:59.735Z,53.00
2019-01-24T20:46:03.718Z,63.03
2019-01-24T20:49:07.748Z,51.73
2019-01-24T20:52:11.683Z,57.93
2019-01-24T20:55:15.814Z,60.07
2019-01-24T20:58:19.715Z,52.03
2019-01-24T21:01:23.538Z,125.57
2019-01-24T21:04:27.507Z,64.47
2019-01-24T21:07:31.335Z,56.13
2019-01-24T21:10:35.204Z,75.70
2019-01-24T21:13:39.013Z,65.17
2019-01-24T21:16:42.892Z,71.63
2019-01-24T21:19:46.713Z,65.57
2019-01-24T21:22:50.787Z,63.37
2019-01-24T21:25:54.615Z,56.67
2019-01-24T21:28:58.465Z,63.97
2019-01-24T21:32:02.402Z,70.23
2019-01-24T21:35:07.161Z,70.80
2019-01-24T21:38:11.041Z,139.60
2019-01-24T21:41:14.992Z,74.97
2019-01-24T21:44:18.877Z,64.27
2019-01-24T21:47:22.703Z,70.43
2019-01-24T21:50:27.396Z,61.10
2019-01-24T21:53:31.319Z,62.00
2019-01-24T21:56:35.133Z,60.60
2019-01-24T21:59:38.998Z,59.30
2019-01-24T22:02:42.897Z,61.03
2019-01-24T22:05:46.825Z,70.70
2019-01-24T22:08:50.737Z,70.00
2019-01-24T22:11:54.634Z,60.20
2019-01-24T22:14:58.444Z,66.77
2019-01-24T22:18:02.267Z,60.53
2019-01-24T22:21:06.378Z,61.03
2019-01-24T22:24:10.231Z,52.03
2019-01-24T22:27:14.146Z,62.37
2019-01-24T22:30:24.485Z,58.53
2019-01-24T22:33:28.330Z,56.43
2019-01-24T22:36:32.167Z,53.77
2019-01-24T22:39:36.684Z,57.70
2019-01-24T22:42:40.740Z,65.53
2019-01-24T22:45:44.642Z,62.90
2019-01-24T22:48:48.451Z,63.47
2019-01-24T22:51:52.310Z,61.00
2019-01-24T22:54:56.120Z,56.87
2019-01-24T22:58:00.015Z,62.90
2019-01-24T23:01:23.026Z,59.90
2019-01-24T23:04:26.978Z,60.03
2019-01-24T23:07:30.961Z,62.23
2019-01-24T23:10:35.041Z,60.87
2019-01-24T23:13:39.028Z,66.23
2019-01-24T23:16:42.950Z,58.87
2019-01-24T23:19:46.810Z,56.13
2019-01-24T23:22:50.730Z,57.43
2019-01-24T23:25:54.651Z,59.10
2019-01-24T23:28:58.494Z,59.87
2019-01-24T23:32:02.490Z,65.40
2019-01-24T23:35:06.965Z,59.90
2019-01-24T23:38:10.941Z,57.93
2019-01-24T23:41:14.871Z,56.57
2019-01-24T23:44:18.791Z,61.10
2019-01-24T23:47:22.650Z,62.27
2019-01-24T23:50:26.687Z,61.70
2019-01-24T23:53:30.553Z,58.90
2019-01-24T23:56:34.402Z,58.33
2019-01-24T23:59:38.256Z,60.93
